sensor_id;sensor_type;location;lat;lon;timestamp;pressure;altitude;pressure_sealevel;temperature;humidity
47240;BME280;32978;53.586;10.052;2023-02-13T00:00:44;103824.16;;;6.61;100.00
47240;BME280;32978;53.586;10.052;2023-02-13T00:05:40;103822.50;;;6.66;100.00
47240;BME280;32978;53.586;10.052;2023-02-13T00:10:37;103824.81;;;6.56;100.00
47240;BME280;32978;53.586;10.052;2023-02-13T00:15:33;103825.22;;;6.60;100.00
47240;BME280;32978;53.586;10.052;2023-02-13T00:20:30;103821.69;;;6.59;100.00
47240;BME280;32978;53.586;10.052;2023-02-13T00:25:26;103815.47;;;6.45;100.00
47240;BME280;32978;53.586;10.052;2023-02-13T00:30:23;103806.41;;;6.51;100.00
47240;BME280;32978;53.586;10.052;2023-02-13T00:35:19;103811.22;;;6.49;100.00
47240;BME280;32978;53.586;10.052;2023-02-13T00:40:15;103798.31;;;6.38;100.00
47240;BME280;32978;53.586;10.052;2023-02-13T00:45:12;103809.78;;;6.47;100.00
47240;BME280;32978;53.586;10.052;2023-02-13T00:50:09;103809.59;;;6.42;100.00
47240;BME280;32978;53.586;10.052;2023-02-13T00:55:05;103809.59;;;6.42;100.00
47240;BME280;32978;53.586;10.052;2023-02-13T01:00:02;103807.94;;;6.41;100.00
47240;BME280;32978;53.586;10.052;2023-02-13T01:04:58;103808.78;;;6.41;100.00
47240;BME280;32978;53.586;10.052;2023-02-13T01:09:55;103801.91;;;6.32;100.00
47240;BME280;32978;53.586;10.052;2023-02-13T01:14:51;103798.13;;;6.33;100.00
47240;BME280;32978;53.586;10.052;2023-02-13T01:19:48;103801.03;;;6.38;100.00
47240;BME280;32978;53.586;10.052;2023-02-13T01:24:44;103800.84;;;6.33;100.00
47240;BME280;32978;53.586;10.052;2023-02-13T01:29:40;103805.00;;;6.36;100.00
47240;BME280;32978;53.586;10.052;2023-02-13T01:34:37;103789.56;;;6.36;100.00
47240;BME280;32978;53.586;10.052;2023-02-13T01:39:33;103780.59;;;6.29;100.00
47240;BME280;32978;53.586;10.052;2023-02-13T01:44:49;103775.34;;;6.34;100.00
47240;BME280;32978;53.586;10.052;2023-02-13T01:49:47;103766.56;;;6.32;100.00
47240;BME280;32978;53.586;10.052;2023-02-13T01:54:45;103774.13;;;6.23;100.00
47240;BME280;32978;53.586;10.052;2023-02-13T01:59:54;103766.59;;;6.19;100.00
47240;BME280;32978;53.586;10.052;2023-02-13T02:10:08;103755.31;;;6.22;100.00
47240;BME280;32978;53.586;10.052;2023-02-13T02:15:06;103745.50;;;6.21;100.00
47240;BME280;32978;53.586;10.052;2023-02-13T02:25:52;103740.25;;;6.26;100.00
47240;BME280;32978;53.586;10.052;2023-02-13T02:36:49;103736.50;;;6.20;100.00
47240;BME280;32978;53.586;10.052;2023-02-13T02:47:55;103736.91;;;6.24;100.00
47240;BME280;32978;53.586;10.052;2023-02-13T02:58:29;103724.81;;;6.20;100.00
47240;BME280;32978;53.586;10.052;2023-02-13T03:03:46;103722.09;;;6.20;100.00
47240;BME280;32978;53.586;10.052;2023-02-13T03:09:05;103721.88;;;6.15;100.00
47240;BME280;32978;53.586;10.052;2023-02-13T03:14:25;103726.28;;;6.16;100.00
47240;BME280;32978;53.586;10.052;2023-02-13T03:19:43;103725.22;;;6.17;100.00
47240;BME280;32978;53.586;10.052;2023-02-13T03:35:34;103733.38;;;6.17;100.00
47240;BME280;32978;53.586;10.052;2023-02-13T03:40:57;103735.06;;;6.18;100.00
47240;BME280;32978;53.586;10.052;2023-02-13T03:46:16;103738.19;;;6.08;100.00
47240;BME280;32978;53.586;10.052;2023-02-13T03:51:20;103744.06;;;6.11;100.00
47240;BME280;32978;53.586;10.052;2023-02-13T03:56:19;103748.88;;;6.09;100.00
47240;BME280;32978;53.586;10.052;2023-02-13T04:01:36;103743.69;;;6.01;100.00
47240;BME280;32978;53.586;10.052;2023-02-13T04:06:47;103745.34;;;6.02;100.00
47240;BME280;32978;53.586;10.052;2023-02-13T04:17:18;103740.34;;;5.99;100.00
47240;BME280;32978;53.586;10.052;2023-02-13T04:22:17;103735.31;;;5.96;100.00
47240;BME280;32978;53.586;10.052;2023-02-13T04:27:15;103735.31;;;5.96;100.00
47240;BME280;32978;53.586;10.052;2023-02-13T04:32:12;103722.56;;;5.90;100.00
47240;BME280;32978;53.586;10.052;2023-02-13T04:37:10;103733.22;;;5.98;100.00
47240;BME280;32978;53.586;10.052;2023-02-13T04:42:06;103730.75;;;5.97;100.00
47240;BME280;32978;53.586;10.052;2023-02-13T04:47:03;103735.94;;;5.98;100.00
47240;BME280;32978;53.586;10.052;2023-02-13T04:51:59;103733.41;;;6.03;100.00
47240;BME280;32978;53.586;10.052;2023-02-13T04:56:56;103733.38;;;6.17;100.00
47240;BME280;32978;53.586;10.052;2023-02-13T05:01:52;103736.97;;;6.04;100.00
47240;BME280;32978;53.586;10.052;2023-02-13T05:06:49;103732.75;;;6.15;100.00
47240;BME280;32978;53.586;10.052;2023-02-13T05:11:46;103730.69;;;6.03;100.00
47240;BME280;32978;53.586;10.052;2023-02-13T05:16:42;103729.47;;;5.99;100.00
47240;BME280;32978;53.586;10.052;2023-02-13T05:21:38;103728.66;;;5.99;100.00
47240;BME280;32978;53.586;10.052;2023-02-13T05:26:54;103733.84;;;6.07;100.00
47240;BME280;32978;53.586;10.052;2023-02-13T05:31:53;103724.63;;;6.08;100.00
47240;BME280;32978;53.586;10.052;2023-02-13T05:36:51;103735.25;;;6.16;100.00
47240;BME280;32978;53.586;10.052;2023-02-13T05:41:48;103732.97;;;6.20;100.00
47240;BME280;32978;53.586;10.052;2023-02-13T05:46:45;103737.38;;;6.07;100.00
47240;BME280;32978;53.586;10.052;2023-02-13T05:51:42;103727.31;;;6.15;100.00
47240;BME280;32978;53.586;10.052;2023-02-13T05:56:38;103741.53;;;6.17;100.00
47240;BME280;32978;53.586;10.052;2023-02-13T06:01:35;103739.88;;;6.09;100.00
47240;BME280;32978;53.586;10.052;2023-02-13T06:06:31;103743.63;;;6.08;100.00
47240;BME280;32978;53.586;10.052;2023-02-13T06:11:28;103747.44;;;6.00;100.00
47240;BME280;32978;53.586;10.052;2023-02-13T06:16:24;103746.59;;;6.06;100.00
47240;BME280;32978;53.586;10.052;2023-02-13T06:21:21;103746.59;;;6.06;100.00
47240;BME280;32978;53.586;10.052;2023-02-13T06:26:18;103744.50;;;6.08;100.00
47240;BME280;32978;53.586;10.052;2023-02-13T06:31:14;103747.63;;;6.05;100.00
47240;BME280;32978;53.586;10.052;2023-02-13T06:36:11;103743.25;;;6.04;100.00
47240;BME280;32978;53.586;10.052;2023-02-13T06:41:07;103761.63;;;6.09;100.00
47240;BME280;32978;53.586;10.052;2023-02-13T06:46:05;103764.53;;;6.14;100.00
47240;BME280;32978;53.586;10.052;2023-02-13T06:51:02;103762.88;;;6.06;100.00
47240;BME280;32978;53.586;10.052;2023-02-13T06:56:03;103783.38;;;5.96;100.00
47240;BME280;32978;53.586;10.052;2023-02-13T07:01:00;103786.69;;;5.91;100.00
47240;BME280;32978;53.586;10.052;2023-02-13T07:05:57;103794.22;;;5.89;100.00
47240;BME280;32978;53.586;10.052;2023-02-13T07:10:53;103795.88;;;6.03;100.00
47240;BME280;32978;53.586;10.052;2023-02-13T07:15:50;103798.84;;;5.95;100.00
47240;BME280;32978;53.586;10.052;2023-02-13T07:20:46;103795.47;;;5.93;100.00
47240;BME280;32978;53.586;10.052;2023-02-13T07:25:43;103797.59;;;5.98;100.00
47240;BME280;32978;53.586;10.052;2023-02-13T07:30:39;103800.09;;;5.99;100.00
47240;BME280;32978;53.586;10.052;2023-02-13T07:35:36;103790.88;;;6.00;100.00
47240;BME280;32978;53.586;10.052;2023-02-13T07:40:33;103789.63;;;5.96;100.00
47240;BME280;32978;53.586;10.052;2023-02-13T07:45:30;103799.22;;;6.05;100.00
47240;BME280;32978;53.586;10.052;2023-02-13T07:50:27;103802.38;;;6.16;100.00
47240;BME280;32978;53.586;10.052;2023-02-13T07:55:24;103814.69;;;6.11;100.00
47240;BME280;32978;53.586;10.052;2023-02-13T08:00:21;103810.69;;;6.21;100.00
47240;BME280;32978;53.586;10.052;2023-02-13T08:05:18;103811.34;;;6.09;100.00
47240;BME280;32978;53.586;10.052;2023-02-13T08:10:14;103815.94;;;6.16;100.00
47240;BME280;32978;53.586;10.052;2023-02-13T08:15:29;103813.03;;;6.10;100.00
47240;BME280;32978;53.586;10.052;2023-02-13T08:20:26;103823.03;;;6.17;100.00
47240;BME280;32978;53.586;10.052;2023-02-13T08:25:22;103824.50;;;6.19;100.00
47240;BME280;32978;53.586;10.052;2023-02-13T08:30:19;103818.88;;;6.07;100.00
47240;BME280;32978;53.586;10.052;2023-02-13T08:35:15;103819.91;;;6.20;100.00
47240;BME280;32978;53.586;10.052;2023-02-13T08:40:12;103811.94;;;6.31;100.00
47240;BME280;32978;53.586;10.052;2023-02-13T08:45:09;103808.00;;;6.14;100.00
47240;BME280;32978;53.586;10.052;2023-02-13T08:50:07;103813.22;;;6.29;100.00
47240;BME280;32978;53.586;10.052;2023-02-13T08:55:04;103814.22;;;6.41;100.00
47240;BME280;32978;53.586;10.052;2023-02-13T09:00:00;103812.13;;;6.30;100.00
47240;BME280;32978;53.586;10.052;2023-02-13T09:04:57;103797.50;;;6.31;100.00
47240;BME280;32978;53.586;10.052;2023-02-13T09:09:54;103804.19;;;6.35;100.00
47240;BME280;32978;53.586;10.052;2023-02-13T09:14:50;103811.72;;;6.33;100.00
47240;BME280;32978;53.586;10.052;2023-02-13T09:19:47;103807.50;;;6.44;100.00
47240;BME280;32978;53.586;10.052;2023-02-13T09:24:44;103812.16;;;6.23;100.00
47240;BME280;32978;53.586;10.052;2023-02-13T09:29:40;103812.13;;;6.37;100.00
47240;BME280;32978;53.586;10.052;2023-02-13T09:34:37;103809.13;;;6.51;100.00
47240;BME280;32978;53.586;10.052;2023-02-13T09:39:33;103819.22;;;6.31;100.00
47240;BME280;32978;53.586;10.052;2023-02-13T09:44:40;103816.13;;;6.34;100.00
47240;BME280;32978;53.586;10.052;2023-02-13T09:49:43;103803.69;;;6.51;100.00
47240;BME280;32978;53.586;10.052;2023-02-13T09:54:41;103810.81;;;6.59;100.00
47240;BME280;32978;53.586;10.052;2023-02-13T09:59:49;103796.94;;;6.67;100.00
47240;BME280;32978;53.586;10.052;2023-02-13T10:15:47;103794.81;;;6.76;100.00
47240;BME280;32978;53.586;10.052;2023-02-13T10:20:58;103778.13;;;6.66;100.00
47240;BME280;32978;53.586;10.052;2023-02-13T10:26:00;103779.81;;;6.67;100.00
47240;BME280;32978;53.586;10.052;2023-02-13T10:31:03;103781.47;;;6.68;100.00
47240;BME280;32978;53.586;10.052;2023-02-13T10:36:02;103788.94;;;6.79;100.00
47240;BME280;32978;53.586;10.052;2023-02-13T10:41:22;103795.19;;;6.86;100.00
47240;BME280;32978;53.586;10.052;2023-02-13T10:51:50;103788.16;;;6.72;100.00
47240;BME280;32978;53.586;10.052;2023-02-13T10:57:21;103776.78;;;6.82;100.00
47240;BME280;32978;53.586;10.052;2023-02-13T11:02:28;103780.09;;;6.90;100.00
47240;BME280;32978;53.586;10.052;2023-02-13T11:07:26;103782.66;;;6.85;100.00
47240;BME280;32978;53.586;10.052;2023-02-13T11:12:28;103779.25;;;6.97;100.00
47240;BME280;32978;53.586;10.052;2023-02-13T11:17:29;103769.75;;;7.06;100.00
47240;BME280;32978;53.586;10.052;2023-02-13T11:22:34;103771.34;;;7.20;100.00
47240;BME280;32978;53.586;10.052;2023-02-13T11:27:36;103765.28;;;7.18;100.00
47240;BME280;32978;53.586;10.052;2023-02-13T11:32:34;103763.78;;;7.22;100.00
47240;BME280;32978;53.586;10.052;2023-02-13T11:37:30;103755.25;;;7.12;100.00
47240;BME280;32978;53.586;10.052;2023-02-13T11:42:33;103756.03;;;7.19;100.00
47240;BME280;32978;53.586;10.052;2023-02-13T11:52:34;103770.72;;;7.18;100.00
47240;BME280;32978;53.586;10.052;2023-02-13T11:57:35;103772.41;;;7.12;100.00
47240;BME280;32978;53.586;10.052;2023-02-13T12:02:47;103762.72;;;7.23;100.00
47240;BME280;32978;53.586;10.052;2023-02-13T12:07:45;103753.56;;;7.18;100.00
47240;BME280;32978;53.586;10.052;2023-02-13T12:12:46;103750.06;;;7.35;100.00
47240;BME280;32978;53.586;10.052;2023-02-13T12:18:15;103755.69;;;7.41;100.00
47240;BME280;32978;53.586;10.052;2023-02-13T12:28:19;103752.19;;;7.33;100.00
47240;BME280;32978;53.586;10.052;2023-02-13T12:49:41;103740.09;;;6.98;100.00
47240;BME280;32978;53.586;10.052;2023-02-13T13:21:02;103733.59;;;6.99;100.00
47240;BME280;32978;53.586;10.052;2023-02-13T13:31:11;103725.63;;;7.04;100.00
47240;BME280;32978;53.586;10.052;2023-02-13T13:37:00;103729.47;;;6.89;100.00
47240;BME280;32978;53.586;10.052;2023-02-13T13:47:04;103712.38;;;7.07;100.00
47240;BME280;32978;53.586;10.052;2023-02-13T13:52:31;103702.63;;;7.00;100.00
47240;BME280;32978;53.586;10.052;2023-02-13T14:02:44;103716.88;;;6.95;100.00
47240;BME280;32978;53.586;10.052;2023-02-13T14:07:41;103708.84;;;7.07;100.00
47240;BME280;32978;53.586;10.052;2023-02-13T14:12:48;103724.91;;;6.83;100.00
47240;BME280;32978;53.586;10.052;2023-02-13T14:17:47;103713.50;;;7.00;100.00
47240;BME280;32978;53.586;10.052;2023-02-13T14:22:44;103716.06;;;6.94;100.00
47240;BME280;32978;53.586;10.052;2023-02-13T14:27:41;103716.91;;;6.88;100.00
47240;BME280;32978;53.586;10.052;2023-02-13T14:32:37;103708.72;;;6.95;100.00
47240;BME280;32978;53.586;10.052;2023-02-13T14:37:37;103712.34;;;6.82;100.00
47240;BME280;32978;53.586;10.052;2023-02-13T14:42:50;103726.53;;;6.91;100.00
47240;BME280;32978;53.586;10.052;2023-02-13T14:47:52;103718.19;;;6.86;100.00
47240;BME280;32978;53.586;10.052;2023-02-13T14:52:51;103708.06;;;7.00;100.00
47240;BME280;32978;53.586;10.052;2023-02-13T14:57:52;103712.34;;;6.82;100.00
47240;BME280;32978;53.586;10.052;2023-02-13T15:02:54;103714.13;;;6.63;100.00
47240;BME280;32978;53.586;10.052;2023-02-13T15:08:06;103693.84;;;6.66;100.00
47240;BME280;32978;53.586;10.052;2023-02-13T15:13:29;103690.09;;;6.67;100.00
47240;BME280;32978;53.586;10.052;2023-02-13T15:18:34;103695.75;;;6.59;100.00
47240;BME280;32978;53.586;10.052;2023-02-13T15:23:32;103692.88;;;6.53;100.00
47240;BME280;32978;53.586;10.052;2023-02-13T15:28:30;103696.28;;;6.42;100.00
47240;BME280;32978;53.586;10.052;2023-02-13T15:33:31;103697.50;;;6.46;100.00
47240;BME280;32978;53.586;10.052;2023-02-13T15:38:33;103697.16;;;6.36;100.00
47240;BME280;32978;53.586;10.052;2023-02-13T15:43:40;103690.19;;;6.47;100.00
47240;BME280;32978;53.586;10.052;2023-02-13T15:48:38;103687.59;;;6.27;100.00
47240;BME280;32978;53.586;10.052;2023-02-13T15:53:35;103683.56;;;6.36;100.00
47240;BME280;32978;53.586;10.052;2023-02-13T15:58:33;103678.19;;;6.23;100.00
47240;BME280;32978;53.586;10.052;2023-02-13T16:03:31;103675.47;;;6.23;100.00
47240;BME280;32978;53.586;10.052;2023-02-13T16:08:34;103672.91;;;6.35;100.00
47240;BME280;32978;53.586;10.052;2023-02-13T16:13:31;103664.09;;;6.39;100.00
47240;BME280;32978;53.586;10.052;2023-02-13T16:18:28;103657.59;;;6.40;100.00
47240;BME280;32978;53.586;10.052;2023-02-13T16:23:24;103669.59;;;6.26;100.00
47240;BME280;32978;53.586;10.052;2023-02-13T16:28:24;103665.44;;;6.17;100.00
47240;BME280;32978;53.586;10.052;2023-02-13T16:33:23;103655.88;;;6.07;100.00
47240;BME280;32978;53.586;10.052;2023-02-13T16:43:49;103676.78;;;5.94;100.00
47240;BME280;32978;53.586;10.052;2023-02-13T16:54:44;103668.00;;;6.05;100.00
47240;BME280;32978;53.586;10.052;2023-02-13T16:59:49;103672.63;;;5.91;100.00
47240;BME280;32978;53.586;10.052;2023-02-13T17:04:52;103670.53;;;5.93;100.00
47240;BME280;32978;53.586;10.052;2023-02-13T17:09:57;103670.56;;;5.80;100.00
47240;BME280;32978;53.586;10.052;2023-02-13T17:14:58;103679.97;;;5.97;100.00
47240;BME280;32978;53.586;10.052;2023-02-13T17:19:55;103674.28;;;6.05;100.00
47240;BME280;32978;53.586;10.052;2023-02-13T17:24:51;103684.31;;;5.98;100.00
47240;BME280;32978;53.586;10.052;2023-02-13T17:29:48;103678.50;;;6.01;100.00
47240;BME280;32978;53.586;10.052;2023-02-13T17:34:46;103681.41;;;5.86;100.00
47240;BME280;32978;53.586;10.052;2023-02-13T17:39:44;103681.84;;;5.90;100.00
47240;BME280;32978;53.586;10.052;2023-02-13T17:44:40;103681.41;;;5.86;100.00
47240;BME280;32978;53.586;10.052;2023-02-13T17:49:37;103687.66;;;5.87;100.00
47240;BME280;32978;53.586;10.052;2023-02-13T17:54:33;103683.31;;;5.99;100.00
47240;BME280;32978;53.586;10.052;2023-02-13T17:59:31;103686.19;;;5.91;100.00
47240;BME280;32978;53.586;10.052;2023-02-13T18:04:27;103693.97;;;5.81;100.00
47240;BME280;32978;53.586;10.052;2023-02-13T18:09:24;103684.78;;;5.82;100.00
47240;BME280;32978;53.586;10.052;2023-02-13T18:14:20;103687.88;;;5.92;100.00
47240;BME280;32978;53.586;10.052;2023-02-13T18:19:17;103680.59;;;5.79;100.00
47240;BME280;32978;53.586;10.052;2023-02-13T18:24:13;103688.53;;;5.94;100.00
47240;BME280;32978;53.586;10.052;2023-02-13T18:29:10;103704.41;;;5.77;100.00
47240;BME280;32978;53.586;10.052;2023-02-13T18:34:06;103700.25;;;5.75;100.00
47240;BME280;32978;53.586;10.052;2023-02-13T18:39:03;103690.63;;;5.85;100.00
47240;BME280;32978;53.586;10.052;2023-02-13T18:44:00;103699.00;;;5.64;100.00
47240;BME280;32978;53.586;10.052;2023-02-13T18:48:56;103681.66;;;5.72;100.00
47240;BME280;32978;53.586;10.052;2023-02-13T18:53:53;103686.03;;;5.73;100.00
47240;BME280;32978;53.586;10.052;2023-02-13T18:58:50;103683.31;;;5.86;100.00
47240;BME280;32978;53.586;10.052;2023-02-13T19:03:48;103683.94;;;5.88;100.00
47240;BME280;32978;53.586;10.052;2023-02-13T19:08:45;103683.94;;;5.88;100.00
47240;BME280;32978;53.586;10.052;2023-02-13T19:13:42;103678.53;;;5.75;100.00
47240;BME280;32978;53.586;10.052;2023-02-13T19:18:39;103679.59;;;5.74;100.00
47240;BME280;32978;53.586;10.052;2023-02-13T19:23:37;103674.34;;;5.79;100.00
47240;BME280;32978;53.586;10.052;2023-02-13T19:28:34;103672.69;;;5.71;100.00
47240;BME280;32978;53.586;10.052;2023-02-13T19:33:30;103684.38;;;5.72;100.00
47240;BME280;32978;53.586;10.052;2023-02-13T19:38:27;103685.22;;;5.72;100.00
47240;BME280;32978;53.586;10.052;2023-02-13T19:43:24;103677.22;;;5.90;100.00
47240;BME280;32978;53.586;10.052;2023-02-13T19:48:20;103672.25;;;5.81;100.00
47240;BME280;32978;53.586;10.052;2023-02-13T19:53:17;103676.63;;;5.82;100.00
47240;BME280;32978;53.586;10.052;2023-02-13T19:58:13;103670.41;;;5.68;100.00
47240;BME280;32978;53.586;10.052;2023-02-13T20:03:10;103690.19;;;5.82;100.00
47240;BME280;32978;53.586;10.052;2023-02-13T20:08:07;103681.88;;;5.77;100.00
47240;BME280;32978;53.586;10.052;2023-02-13T20:13:03;103677.25;;;5.77;100.00
47240;BME280;32978;53.586;10.052;2023-02-13T20:17:59;103677.91;;;5.73;100.00
47240;BME280;32978;53.586;10.052;2023-02-13T20:22:56;103678.50;;;5.81;100.00
47240;BME280;32978;53.586;10.052;2023-02-13T20:27:52;103689.81;;;5.72;100.00
47240;BME280;32978;53.586;10.052;2023-02-13T20:32:49;103687.94;;;5.65;100.00
47240;BME280;32978;53.586;10.052;2023-02-13T20:37:45;103691.72;;;5.71;100.00
47240;BME280;32978;53.586;10.052;2023-02-13T20:42:42;103699.81;;;5.78;100.00
47240;BME280;32978;53.586;10.052;2023-02-13T20:47:38;103692.13;;;5.61;100.00
47240;BME280;32978;53.586;10.052;2023-02-13T20:52:38;103702.56;;;5.64;100.00
47240;BME280;32978;53.586;10.052;2023-02-13T20:57:35;103701.72;;;5.70;100.00
47240;BME280;32978;53.586;10.052;2023-02-13T21:02:31;103708.19;;;5.63;100.00
47240;BME280;32978;53.586;10.052;2023-02-13T21:07:28;103711.13;;;5.68;100.00
47240;BME280;32978;53.586;10.052;2023-02-13T21:12:27;103709.84;;;5.64;100.00
47240;BME280;32978;53.586;10.052;2023-02-13T21:17:23;103706.94;;;5.72;100.00
47240;BME280;32978;53.586;10.052;2023-02-13T21:22:20;103703.19;;;5.66;100.00
47240;BME280;32978;53.586;10.052;2023-02-13T21:27:16;103704.84;;;5.67;100.00
47240;BME280;32978;53.586;10.052;2023-02-13T21:32:12;103701.72;;;5.70;100.00
47240;BME280;32978;53.586;10.052;2023-02-13T21:37:09;103710.72;;;5.64;100.00
47240;BME280;32978;53.586;10.052;2023-02-13T21:42:06;103705.47;;;5.69;100.00
47240;BME280;32978;53.586;10.052;2023-02-13T21:47:02;103717.59;;;5.60;100.00
47240;BME280;32978;53.586;10.052;2023-02-13T21:52:02;103723.66;;;5.62;100.00
47240;BME280;32978;53.586;10.052;2023-02-13T21:56:59;103719.06;;;5.63;100.00
47240;BME280;32978;53.586;10.052;2023-02-13T22:01:55;103721.34;;;5.73;100.00
47240;BME280;32978;53.586;10.052;2023-02-13T22:06:53;103722.16;;;5.73;100.00
47240;BME280;32978;53.586;10.052;2023-02-13T22:11:51;103723.66;;;5.69;100.00
47240;BME280;32978;53.586;10.052;2023-02-13T22:16:49;103724.50;;;5.69;100.00
47240;BME280;32978;53.586;10.052;2023-02-13T22:21:47;103719.88;;;5.77;100.00
47240;BME280;32978;53.586;10.052;2023-02-13T22:26:43;103725.31;;;5.70;100.00
47240;BME280;32978;53.586;10.052;2023-02-13T22:31:41;103728.66;;;5.72;100.00
47240;BME280;32978;53.586;10.052;2023-02-13T22:36:38;103726.13;;;5.70;100.00
47240;BME280;32978;53.586;10.052;2023-02-13T22:41:35;103727.41;;;5.61;100.00
47240;BME280;32978;53.586;10.052;2023-02-13T22:46:32;103724.50;;;5.69;100.00
47240;BME280;32978;53.586;10.052;2023-02-13T22:51:31;103724.91;;;5.60;100.00
47240;BME280;32978;53.586;10.052;2023-02-13T22:56:29;103720.31;;;5.67;100.00
47240;BME280;32978;53.586;10.052;2023-02-13T23:01:26;103735.78;;;5.40;100.00
47240;BME280;32978;53.586;10.052;2023-02-13T23:06:23;103736.59;;;5.60;100.00
47240;BME280;32978;53.586;10.052;2023-02-13T23:11:24;103725.75;;;5.60;100.00
47240;BME280;32978;53.586;10.052;2023-02-13T23:16:40;103729.09;;;5.62;100.00
47240;BME280;32978;53.586;10.052;2023-02-13T23:21:55;103728.25;;;5.62;100.00
47240;BME280;32978;53.586;10.052;2023-02-13T23:26:52;103725.75;;;5.60;100.00
47240;BME280;32978;53.586;10.052;2023-02-13T23:31:48;103721.97;;;5.61;100.00
47240;BME280;32978;53.586;10.052;2023-02-13T23:36:45;103720.75;;;5.57;100.00
47240;BME280;32978;53.586;10.052;2023-02-13T23:41:41;103723.88;;;5.54;100.00
47240;BME280;32978;53.586;10.052;2023-02-13T23:46:38;103718.25;;;5.49;100.00
47240;BME280;32978;53.586;10.052;2023-02-13T23:51:34;103727.00;;;5.51;100.00
47240;BME280;32978;53.586;10.052;2023-02-13T23:56:31;103721.38;;;5.46;100.00
